Time;durP1;ratioP1;P1;durP2;ratioP2;P2;SDS_P1;SDS_P2;PMS_P1;PMS_P2;Temp;Humidity;BMP_temperature;BMP_pressure;BME280_temperature;BME280_humidity;BME280_pressure;Samples;Min_cycle;Max_cycle;Signal;HPM_P1;HPM_P2
2022/05/20 00:00:13;;;;;;;;;;;;;;;24.34;15.94;100946.16;5034006;28;19979;-71
2022/05/20 00:02:39;;;;;;;;;;;;;;;24.35;15.68;100942.31;5033831;28;19917;-70
2022/05/20 00:05:04;;;;;;;;;;;;;;;24.35;16.04;100939.56;5033761;28;20023;-71
2022/05/20 00:07:30;;;;;;;;;;;;;;;24.36;16.07;100943.97;5034589;28;19921;-71
2022/05/20 00:09:55;;;;;;;;;;;;;;;24.33;16.04;100939.84;5034072;28;20287;-71
2022/05/20 00:12:20;;;;;;;;;;;;;;;24.33;16.13;100947.22;5033712;28;19924;-71
2022/05/20 00:14:46;;;;;;;;;;;;;;;24.34;16.00;100951.59;5033680;28;19936;-71
2022/05/20 00:17:11;;;;;;;;;;;;;;;24.32;15.99;100946.41;5033821;28;19924;-70
2022/05/20 00:19:36;;;;;;;;;;;;;;;24.32;16.19;100949.13;5033532;28;19917;-70
2022/05/20 00:22:02;;;;;;;;;;;;;;;24.34;16.06;100948.88;5033883;28;19917;-70
2022/05/20 00:24:27;;;;;;;;;;;;;;;24.33;16.34;100955.41;5033851;28;19975;-71
2022/05/20 00:26:53;;;;;;;;;;;;;;;24.32;16.15;100951.06;5033382;28;19923;-72
2022/05/20 00:29:18;;;;;;;;;;;;;;;24.32;16.49;100948.31;5033306;28;19921;-70
2022/05/20 00:31:43;;;;;;;;;;;;;;;24.32;16.24;100943.69;5019703;28;19917;-71
2022/05/20 00:34:09;;;;;;;;;;;;;;;24.32;16.37;100948.31;5013674;28;20356;-70
2022/05/20 00:36:34;;;;;;;;;;;;;;;24.32;16.44;100946.41;5013716;28;19922;-70
2022/05/20 00:38:59;;;;;;;;;;;;;;;24.32;16.33;100953.78;5013936;28;19917;-70
2022/05/20 00:41:25;;;;;;;;;;;;;;;24.32;16.51;100943.69;5013561;28;20008;-70
2022/05/20 00:43:50;;;;;;;;;;;;;;;24.31;16.53;100952.13;5013618;28;19952;-69
2022/05/20 00:46:16;;;;;;;;;;;;;;;24.30;16.55;100951.31;5013507;28;19918;-68
2022/05/20 00:48:42;;;;;;;;;;;;;;;24.30;16.67;100953.22;5013518;28;20380;-69
2022/05/20 00:51:14;;;;;;;;;;;;;;;24.30;16.25;100962.25;5013812;28;19943;-68
2022/05/20 00:54:01;;;;;;;;;;;;;;;24.29;16.33;100955.13;4996280;28;20008;-68
2022/05/20 00:56:29;;;;;;;;;;;;;;;24.28;16.42;100964.41;5013463;28;19922;-68
2022/05/20 00:58:54;;;;;;;;;;;;;;;24.27;16.42;100968.22;5014545;28;20036;-68
2022/05/20 01:01:20;;;;;;;;;;;;;;;24.28;16.54;100974.50;4996029;28;19979;-68
2022/05/20 01:03:45;;;;;;;;;;;;;;;24.28;16.61;100979.97;5015487;28;20272;-68
2022/05/20 01:06:10;;;;;;;;;;;;;;;24.27;16.38;100981.88;5017343;28;20004;-68
2022/05/20 01:08:36;;;;;;;;;;;;;;;24.27;16.43;100978.34;5017692;28;19917;-68
2022/05/20 01:11:01;;;;;;;;;;;;;;;24.26;16.49;100977.50;5017523;28;19940;-68
2022/05/20 01:13:27;;;;;;;;;;;;;;;24.27;16.63;100989.28;5017539;28;20360;-68
2022/05/20 01:15:53;;;;;;;;;;;;;;;24.27;16.67;100994.72;4999914;28;20379;-68
2022/05/20 01:18:19;;;;;;;;;;;;;;;24.27;16.62;100989.28;5017495;28;19924;-68
2022/05/20 01:20:46;;;;;;;;;;;;;;;24.27;16.62;100995.53;4999855;28;20280;-69
2022/05/20 01:23:16;;;;;;;;;;;;;;;24.26;16.59;100987.59;5017063;28;19944;-69
2022/05/20 01:25:42;;;;;;;;;;;;;;;24.26;16.81;100993.06;5016898;28;19921;-69
2022/05/20 01:28:08;;;;;;;;;;;;;;;24.25;16.80;100983.22;5016877;28;19975;-68
2022/05/20 01:30:33;;;;;;;;;;;;;;;24.26;16.50;100991.16;5019711;28;19921;-68
2022/05/20 01:33:04;;;;;;;;;;;;;;;24.26;16.76;100988.41;5036886;28;19924;-68
2022/05/20 01:35:30;;;;;;;;;;;;;;;24.25;16.81;100981.34;5036639;28;19964;-68
2022/05/20 01:37:55;;;;;;;;;;;;;;;24.25;16.67;100984.06;5036553;28;19991;-68
2022/05/20 01:40:20;;;;;;;;;;;;;;;24.26;16.69;100976.69;5036750;28;20067;-70
2022/05/20 01:42:49;;;;;;;;;;;;;;;24.25;16.65;100975.03;5036419;28;20386;-70
2022/05/20 01:45:16;;;;;;;;;;;;;;;24.26;16.81;100977.50;5036692;28;19926;-70
2022/05/20 01:47:41;;;;;;;;;;;;;;;24.26;16.67;100973.94;5019097;28;20012;-70
2022/05/20 01:50:08;;;;;;;;;;;;;;;24.26;16.63;100974.78;5036625;28;20415;-70
2022/05/20 01:52:38;;;;;;;;;;;;;;;24.24;16.66;100974.22;5018610;28;20004;-70
2022/05/20 01:55:06;;;;;;;;;;;;;;;24.24;16.70;100973.41;5036605;28;20054;-71
2022/05/20 01:57:43;;;;;;;;;;;;;;;24.24;16.95;100970.66;5036268;28;20442;-71
2022/05/20 02:00:13;;;;;;;;;;;;;;;24.24;16.85;100968.75;5036360;28;19924;-72
2022/05/20 02:02:53;;;;;;;;;;;;;;;24.24;16.80;100967.94;5036394;28;19921;-70
2022/05/20 02:05:28;;;;;;;;;;;;;;;24.23;16.83;100971.75;5036263;28;19917;-70
2022/05/20 02:07:54;;;;;;;;;;;;;;;24.23;16.71;100967.09;5035851;28;19928;-70
2022/05/20 02:10:29;;;;;;;;;;;;;;;24.24;16.95;100965.22;5018313;28;19917;-70
2022/05/20 02:12:57;;;;;;;;;;;;;;;24.22;16.63;100965.47;5018533;28;19967;-70
2022/05/20 02:15:27;;;;;;;;;;;;;;;24.22;17.04;100970.94;5034975;28;20006;-70
2022/05/20 02:17:54;;;;;;;;;;;;;;;24.22;16.96;100965.47;5035859;28;20376;-71
2022/05/20 02:20:21;;;;;;;;;;;;;;;24.21;16.83;100974.75;5018030;28;19923;-70
2022/05/20 02:22:49;;;;;;;;;;;;;;;24.22;16.67;100970.94;5018365;28;20008;-69
2022/05/20 02:25:16;;;;;;;;;;;;;;;24.21;16.87;100969.28;5018201;28;19917;-69
2022/05/20 02:27:42;;;;;;;;;;;;;;;24.21;16.84;100971.19;5016126;28;19939;-69
2022/05/20 02:30:07;;;;;;;;;;;;;;;24.21;17.00;100969.28;5016109;28;20360;-69
2022/05/20 02:32:36;;;;;;;;;;;;;;;24.20;16.95;100967.66;4998322;28;20292;-68
2022/05/20 02:35:02;;;;;;;;;;;;;;;24.21;16.96;100969.28;4979161;28;19918;-69
2022/05/20 02:37:28;;;;;;;;;;;;;;;24.21;16.80;100968.47;4996401;28;19924;-68
2022/05/20 02:39:54;;;;;;;;;;;;;;;24.22;17.12;100961.94;4996077;28;19937;-69
2022/05/20 02:42:19;;;;;;;;;;;;;;;24.19;16.94;100972.28;4996208;28;19918;-69
2022/05/20 02:44:44;;;;;;;;;;;;;;;24.18;17.01;100978.00;4996385;28;19922;-69
2022/05/20 02:47:10;;;;;;;;;;;;;;;24.18;16.81;100976.09;4996196;28;19922;-69
2022/05/20 02:49:35;;;;;;;;;;;;;;;24.19;17.09;100983.19;4996289;28;19921;-68
2022/05/20 02:52:01;;;;;;;;;;;;;;;24.19;17.07;100985.13;4996077;28;19924;-68
2022/05/20 02:54:26;;;;;;;;;;;;;;;24.18;17.00;100989.75;4995875;28;19979;-68
2022/05/20 02:56:51;;;;;;;;;;;;;;;24.18;16.64;100992.50;4995734;28;20023;-68
2022/05/20 03:04:44;;;;;;;;;;;;;;;24.21;16.49;100990.31;4995803;28;20248;-69
2022/05/20 03:07:10;;;;;;;;;;;;;;;24.22;16.28;100992.78;4995930;28;19918;-68
2022/05/20 03:09:35;;;;;;;;;;;;;;;24.24;16.36;100995.25;4995941;28;19922;-68
2022/05/20 03:12:00;;;;;;;;;;;;;;;24.26;16.34;101002.06;4995865;28;19925;-67
2022/05/20 03:14:25;;;;;;;;;;;;;;;24.30;16.29;101000.47;4995456;28;20284;-70
2022/05/20 03:16:51;;;;;;;;;;;;;;;24.33;16.44;100999.13;4996286;28;19917;-70
2022/05/20 03:19:16;;;;;;;;;;;;;;;24.35;16.21;100992.31;4995823;28;19964;-70
2022/05/20 03:21:42;;;;;;;;;;;;;;;24.38;16.25;100997.22;4995642;28;19924;-70
2022/05/20 03:24:07;;;;;;;;;;;;;;;24.40;16.30;100999.69;4995390;28;19940;-70
2022/05/20 03:26:33;;;;;;;;;;;;;;;24.43;16.18;100999.16;4995565;28;19918;-70
2022/05/20 03:28:59;;;;;;;;;;;;;;;24.45;16.42;100997.00;5005728;28;19922;-70
2022/05/20 03:31:25;;;;;;;;;;;;;;;24.50;16.38;100994.28;5021841;28;20415;-70
2022/05/20 03:33:50;;;;;;;;;;;;;;;24.52;16.33;100994.81;5034803;28;19944;-70
2022/05/20 03:36:15;;;;;;;;;;;;;;;24.54;16.31;100983.66;5034732;28;20331;-70
2022/05/20 03:38:41;;;;;;;;;;;;;;;24.57;16.33;100998.72;5034524;28;19917;-70
2022/05/20 03:41:06;;;;;;;;;;;;;;;24.60;16.43;100982.63;5034904;28;19917;-71
2022/05/20 03:43:33;;;;;;;;;;;;;;;24.61;16.34;100991.63;5034865;28;19917;-71
2022/05/20 03:45:58;;;;;;;;;;;;;;;24.64;16.35;100991.91;5034770;28;19941;-70
2022/05/20 03:48:23;;;;;;;;;;;;;;;24.67;16.26;100998.78;5034326;28;19917;-70
2022/05/20 03:50:48;;;;;;;;;;;;;;;24.67;16.17;100990.56;5034466;28;19924;-71
2022/05/20 03:53:14;;;;;;;;;;;;;;;24.69;16.38;100980.19;5034544;28;20004;-70
2022/05/20 03:55:39;;;;;;;;;;;;;;;24.73;16.37;100982.13;5034394;28;19963;-71
2022/05/20 03:58:04;;;;;;;;;;;;;;;24.75;16.35;100979.13;5034410;28;19917;-70
2022/05/20 04:00:29;;;;;;;;;;;;;;;24.76;16.30;100988.13;5034611;28;19917;-72
2022/05/20 04:02:55;;;;;;;;;;;;;;;24.82;16.34;100987.88;5038500;28;20312;-71
2022/05/20 04:05:20;;;;;;;;;;;;;;;24.82;16.54;100987.88;5034421;28;19960;-70
2022/05/20 04:07:45;;;;;;;;;;;;;;;24.84;16.17;100988.44;5034655;28;20260;-68
2022/05/20 04:10:10;;;;;;;;;;;;;;;24.87;16.21;100981.59;5034229;28;20015;-68
2022/05/20 04:12:38;;;;;;;;;;;;;;;24.88;16.27;100975.88;5034126;28;20315;-68
2022/05/20 04:15:03;;;;;;;;;;;;;;;24.90;16.16;100976.41;5016375;28;20384;-68
2022/05/20 04:17:29;;;;;;;;;;;;;;;24.93;16.26;100980.53;5016230;28;19987;-68
2022/05/20 04:19:54;;;;;;;;;;;;;;;24.98;16.39;100979.72;5033495;28;19927;-69
2022/05/20 04:22:20;;;;;;;;;;;;;;;24.99;16.25;100979.47;5033997;28;19928;-68
2022/05/20 04:24:45;;;;;;;;;;;;;;;24.99;16.24;100975.91;5033454;28;19956;-68
2022/05/20 04:27:11;;;;;;;;;;;;;;;25.03;16.20;100980.56;5033071;28;20336;-68
2022/05/20 04:29:36;;;;;;;;;;;;;;;25.05;16.20;100977.56;5033497;28;19935;-69
2022/05/20 04:32:01;;;;;;;;;;;;;;;25.09;16.43;100981.38;5023051;28;19917;-68
2022/05/20 04:34:27;;;;;;;;;;;;;;;25.11;16.48;100979.19;5014210;28;20360;-70
2022/05/20 04:36:52;;;;;;;;;;;;;;;25.12;16.28;100980.84;5021212;28;19945;-69
2022/05/20 04:39:17;;;;;;;;;;;;;;;25.13;16.22;100979.78;5019315;28;19918;-68
2022/05/20 04:47:14;;;;;;;;;;;;;;;25.16;16.53;100983.84;4999187;28;19928;-72
2022/05/20 04:49:40;;;;;;;;;;;;;;;25.18;16.63;100979.78;5014669;28;19921;-71
2022/05/20 04:52:05;;;;;;;;;;;;;;;25.20;16.55;100980.31;5013943;28;20433;-72
2022/05/20 04:54:49;;;;;;;;;;;;;;;25.22;16.48;100989.06;5013990;28;19936;-72
2022/05/20 04:57:18;;;;;;;;;;;;;;;25.24;16.43;100991.53;5013762;28;19940;-72
2022/05/20 04:59:43;;;;;;;;;;;;;;;25.28;16.40;100982.56;5013403;28;20356;-72
2022/05/20 05:02:08;;;;;;;;;;;;;;;25.28;16.46;100977.09;5013175;28;20016;-70
2022/05/20 05:04:35;;;;;;;;;;;;;;;25.33;16.32;100972.69;5013805;28;20361;-71
2022/05/20 05:07:00;;;;;;;;;;;;;;;25.36;16.30;100972.16;4991510;28;19918;-71
2022/05/20 05:09:25;;;;;;;;;;;;;;;25.37;16.29;100965.59;4991534;28;20339;-71
2022/05/20 05:11:51;;;;;;;;;;;;;;;25.39;16.26;100955.19;4991501;28;19918;-71
2022/05/20 05:14:17;;;;;;;;;;;;;;;25.39;16.26;100950.56;4991529;28;20288;-73
2022/05/20 05:16:42;;;;;;;;;;;;;;;25.40;16.48;100957.66;4991596;28;19925;-71
2022/05/20 05:19:08;;;;;;;;;;;;;;;25.42;16.24;100960.97;4991718;28;19918;-71
2022/05/20 05:21:33;;;;;;;;;;;;;;;25.45;16.33;100959.56;4991323;28;20377;-71
2022/05/20 05:24:01;;;;;;;;;;;;;;;25.43;16.29;100959.84;4990968;28;20438;-71
2022/05/20 05:26:27;;;;;;;;;;;;;;;25.48;16.06;100953.56;4991210;28;19918;-72
2022/05/20 05:28:52;;;;;;;;;;;;;;;25.49;16.11;100947.81;4991695;28;20407;-71
2022/05/20 05:31:17;;;;;;;;;;;;;;;25.51;16.53;100942.06;4995320;28;19925;-70
2022/05/20 05:33:43;;;;;;;;;;;;;;;25.54;16.56;100937.94;5011319;28;20376;-69
2022/05/20 05:36:09;;;;;;;;;;;;;;;25.59;16.57;100933.28;5011118;28;19923;-69
2022/05/20 05:38:34;;;;;;;;;;;;;;;25.58;16.29;100931.66;5027677;28;20271;-69
2022/05/20 05:40:59;;;;;;;;;;;;;;;25.59;16.15;100929.75;5033369;28;20437;-71
2022/05/20 05:43:24;;;;;;;;;;;;;;;25.55;16.09;100937.69;5033235;28;19924;-68
2022/05/20 05:45:50;;;;;;;;;;;;;;;25.59;16.02;100938.75;5033507;28;19959;-68
2022/05/20 05:48:17;;;;;;;;;;;;;;;25.62;16.24;100942.88;5033347;28;20374;-69
2022/05/20 05:50:42;;;;;;;;;;;;;;;25.66;16.18;100941.22;5034691;28;19917;-69
2022/05/20 05:53:15;;;;;;;;;;;;;;;25.67;15.81;100942.88;5036721;28;20020;-69
2022/05/20 05:55:41;;;;;;;;;;;;;;;25.66;16.12;100941.22;5037440;28;19917;-68
2022/05/20 05:58:06;;;;;;;;;;;;;;;25.68;16.15;100937.13;5037525;28;19928;-67
2022/05/20 06:00:31;;;;;;;;;;;;;;;25.69;16.01;100946.16;5037859;28;19917;-68
2022/05/20 06:02:57;;;;;;;;;;;;;;;25.68;15.75;100947.22;5038132;28;19917;-68
2022/05/20 06:05:22;;;;;;;;;;;;;;;25.70;15.74;100939.59;5038960;28;20096;-69
2022/05/20 06:07:48;;;;;;;;;;;;;;;25.73;15.52;100943.69;5036942;28;20383;-69
2022/05/20 06:10:13;;;;;;;;;;;;;;;25.71;15.68;100943.94;5037872;28;20271;-68
2022/05/20 06:12:38;;;;;;;;;;;;;;;25.76;15.42;100943.13;5038862;28;20434;-72
2022/05/20 06:15:05;;;;;;;;;;;;;;;25.79;15.38;100942.59;5037210;28;19921;-72
2022/05/20 06:17:30;;;;;;;;;;;;;;;25.80;15.53;100946.94;5036186;28;20362;-72
2022/05/20 06:19:55;;;;;;;;;;;;;;;25.84;15.21;100945.31;5035706;28;19921;-72
2022/05/20 06:22:21;;;;;;;;;;;;;;;25.80;15.34;100945.06;5036328;28;20047;-72
2022/05/20 06:24:46;;;;;;;;;;;;;;;25.86;15.52;100938.44;5036385;28;19917;-71
2022/05/20 06:27:11;;;;;;;;;;;;;;;25.89;15.38;100953.53;5036086;28;19917;-71
2022/05/20 06:29:38;;;;;;;;;;;;;;;25.91;15.14;100945.03;5035239;28;19946;-72
2022/05/20 06:32:03;;;;;;;;;;;;;;;25.90;15.56;100949.66;5026026;28;19928;-71
2022/05/20 06:39:48;;;;;;;;;;;;;;;25.87;15.53;100950.22;5016285;28;19917;-72
2022/05/20 06:40:05;;;;;;;;;;;;;;;25.96;15.87;100954.09;5015043;28;19924;-72
2022/05/20 06:42:30;;;;;;;;;;;;;;;26.00;15.61;100952.41;5015130;28;19935;-71
2022/05/20 06:44:56;;;;;;;;;;;;;;;26.00;15.74;100957.91;5015588;28;20016;-72
2022/05/20 06:47:21;;;;;;;;;;;;;;;26.00;15.62;100944.19;5015543;28;20329;-72
2022/05/20 06:49:46;;;;;;;;;;;;;;;26.02;15.50;100942.00;5015289;28;19949;-72
2022/05/20 06:52:11;;;;;;;;;;;;;;;26.02;15.48;100935.72;5015046;28;20352;-72
2022/05/20 06:54:37;;;;;;;;;;;;;;;25.99;15.63;100941.75;5015445;28;20303;-72
2022/05/20 06:57:02;;;;;;;;;;;;;;;26.01;15.46;100951.34;5015312;28;19993;-70
2022/05/20 06:59:27;;;;;;;;;;;;;;;26.02;15.41;100942.00;5015027;28;19972;-70
2022/05/20 07:01:54;;;;;;;;;;;;;;;26.02;15.53;100935.72;4997003;28;20280;-70
2022/05/20 07:04:19;;;;;;;;;;;;;;;26.07;15.39;100934.88;5015056;28;19917;-69
2022/05/20 07:06:44;;;;;;;;;;;;;;;26.07;15.41;100935.69;5015030;28;20048;-69
2022/05/20 07:09:09;;;;;;;;;;;;;;;26.09;15.61;100932.69;5014933;28;19924;-69
2022/05/20 07:11:35;;;;;;;;;;;;;;;26.10;15.27;100934.34;5015043;28;20388;-69
2022/05/20 07:14:01;;;;;;;;;;;;;;;26.13;15.35;100931.00;5014802;28;19918;-69
2022/05/20 07:16:27;;;;;;;;;;;;;;;26.13;15.42;100928.28;5014770;28;19917;-67
2022/05/20 07:18:52;;;;;;;;;;;;;;;26.09;15.52;100928.00;5014909;28;19925;-68
2022/05/20 07:21:17;;;;;;;;;;;;;;;26.11;15.35;100922.25;5014344;28;20007;-67
2022/05/20 07:23:42;;;;;;;;;;;;;;;26.10;15.33;100915.16;5014625;28;19917;-68
2022/05/20 07:26:08;;;;;;;;;;;;;;;26.17;15.15;100921.16;5014338;28;20356;-68
2022/05/20 07:28:34;;;;;;;;;;;;;;;26.09;15.13;100914.31;5014151;28;19928;-68
2022/05/20 07:30:59;;;;;;;;;;;;;;;26.09;15.26;100916.25;5014609;28;19924;-68
2022/05/20 07:33:24;;;;;;;;;;;;;;;26.08;15.30;100918.19;5033660;28;19917;-68
2022/05/20 07:35:53;;;;;;;;;;;;;;;26.11;15.27;100908.56;5034314;28;19932;-69
2022/05/20 07:38:18;;;;;;;;;;;;;;;26.16;15.08;100905.81;5034439;28;19917;-67
2022/05/20 07:40:43;;;;;;;;;;;;;;;26.19;15.26;100897.03;5033906;28;20375;-67
2022/05/20 07:43:09;;;;;;;;;;;;;;;26.22;15.27;100896.50;5033895;28;20012;-68
2022/05/20 07:45:34;;;;;;;;;;;;;;;26.19;15.02;100897.03;5034944;28;20320;-69
2022/05/20 07:47:59;;;;;;;;;;;;;;;26.20;15.38;100893.22;5034226;28;19917;-68
2022/05/20 07:50:25;;;;;;;;;;;;;;;26.08;14.96;100898.16;5016381;28;19927;-70
2022/05/20 07:55:35;;;;;;;;;;;;;;;26.27;15.03;100890.16;5034662;28;20002;-70
2022/05/20 07:58:02;;;;;;;;;;;;;;;26.23;15.23;100889.88;5015573;28;20368;-69
2022/05/20 08:00:28;;;;;;;;;;;;;;;26.27;15.09;100893.72;5033653;28;19924;-70
2022/05/20 08:02:53;;;;;;;;;;;;;;;26.31;14.91;100888.50;5017038;28;20284;-71
2022/05/20 08:05:20;;;;;;;;;;;;;;;26.26;14.90;100896.75;5016711;28;20332;-68
2022/05/20 08:07:45;;;;;;;;;;;;;;;26.34;14.78;100894.22;5016248;28;19921;-69
2022/05/20 08:10:12;;;;;;;;;;;;;;;26.33;14.97;100887.09;5016424;28;19917;-69
2022/05/20 08:12:37;;;;;;;;;;;;;;;26.31;14.82;100889.31;5033291;28;20363;-69
2022/05/20 08:15:03;;;;;;;;;;;;;;;26.34;14.67;100898.91;5033563;28;19924;-74
2022/05/20 08:17:29;;;;;;;;;;;;;;;26.35;14.78;100889.56;5033258;28;19917;-74
2022/05/20 08:19:54;;;;;;;;;;;;;;;26.30;14.97;100887.69;5016353;28;19959;-74
2022/05/20 08:22:22;;;;;;;;;;;;;;;26.32;14.97;100885.47;5033647;28;19917;-73
2022/05/20 08:24:52;;;;;;;;;;;;;;;26.31;14.84;100889.31;5016099;28;19924;-73
2022/05/20 08:27:19;;;;;;;;;;;;;;;26.25;14.91;100884.97;5033149;28;19921;-73
2022/05/20 08:29:44;;;;;;;;;;;;;;;26.43;14.77;100887.06;5034349;28;19928;-73
2022/05/20 08:32:10;;;;;;;;;;;;;;;26.34;14.76;100894.22;5024982;28;19922;-74
2022/05/20 08:34:35;;;;;;;;;;;;;;;26.29;14.81;100879.75;4995817;28;19921;-74
2022/05/20 08:37:00;;;;;;;;;;;;;;;26.38;14.81;100878.84;5013714;28;20304;-74
2022/05/20 08:39:27;;;;;;;;;;;;;;;26.31;14.67;100883.03;5013924;28;19921;-74
2022/05/20 08:41:52;;;;;;;;;;;;;;;26.37;14.85;100882.72;5015751;28;19921;-74
2022/05/20 08:44:18;;;;;;;;;;;;;;;26.29;14.87;100877.81;5013719;28;19929;-74
2022/05/20 08:46:43;;;;;;;;;;;;;;;26.43;14.70;100888.97;5013364;28;19917;-74
2022/05/20 08:49:10;;;;;;;;;;;;;;;26.40;14.60;100884.88;4996723;28;19917;-74
2022/05/20 08:51:42;;;;;;;;;;;;;;;26.47;14.69;100883.75;4996364;28;19918;-74
2022/05/20 08:54:08;;;;;;;;;;;;;;;26.52;14.19;100870.03;4996238;28;19983;-74
2022/05/20 08:56:33;;;;;;;;;;;;;;;26.48;14.63;100879.94;5013016;28;19925;-71
2022/05/20 08:59:02;;;;;;;;;;;;;;;26.49;14.41;100874.16;4995151;28;19991;-71
2022/05/20 09:01:40;;;;;;;;;;;;;;;26.42;14.52;100869.00;5013250;28;19917;-71
2022/05/20 09:04:06;;;;;;;;;;;;;;;26.50;14.44;100872.22;5013265;28;20439;-71
2022/05/20 09:06:32;;;;;;;;;;;;;;;26.41;14.42;100864.59;5013317;28;19917;-71
2022/05/20 09:09:05;;;;;;;;;;;;;;;26.47;14.54;100864.56;4995413;28;19918;-72
2022/05/20 09:11:30;;;;;;;;;;;;;;;26.39;14.60;100869.56;5012607;28;19972;-72
2022/05/20 09:16:56;;;;;;;;;;;;;;;26.51;14.28;100873.84;5013193;28;20383;-72
2022/05/20 09:19:27;;;;;;;;;;;;;;;26.55;14.48;100872.22;5012888;28;20270;-72
2022/05/20 09:22:00;;;;;;;;;;;;;;;26.35;14.89;100862.97;4995472;28;19921;-72
2022/05/20 09:24:25;;;;;;;;;;;;;;;26.59;14.35;100867.78;4996252;28;19921;-73
2022/05/20 09:26:51;;;;;;;;;;;;;;;26.61;14.52;100877.38;5017603;28;20339;-73
2022/05/20 09:29:17;;;;;;;;;;;;;;;26.51;14.54;100865.63;4998877;28;19921;-73
2022/05/20 09:31:47;;;;;;;;;;;;;;;26.65;14.45;100865.84;5020902;28;20372;-72
2022/05/20 09:34:27;;;;;;;;;;;;;;;26.60;14.55;100870.25;5037383;28;20293;-72
2022/05/20 09:36:57;;;;;;;;;;;;;;;26.63;14.33;100874.38;5019013;28;19921;-72
2022/05/20 09:39:26;;;;;;;;;;;;;;;26.58;14.48;100871.66;5037025;28;19917;-72
2022/05/20 09:41:52;;;;;;;;;;;;;;;26.59;14.48;100873.25;5037218;28;19952;-72
2022/05/20 09:44:19;;;;;;;;;;;;;;;26.65;14.47;100861.22;5037286;28;19962;-72
2022/05/20 09:46:54;;;;;;;;;;;;;;;26.69;14.33;100862.28;5018839;28;20376;-71
2022/05/20 09:49:25;;;;;;;;;;;;;;;26.74;14.19;100873.19;5036787;28;19921;-71
2022/05/20 09:51:55;;;;;;;;;;;;;;;26.83;14.07;100861.63;5036129;28;19923;-72
2022/05/20 09:54:21;;;;;;;;;;;;;;;26.88;14.13;100864.34;5036709;28;20012;-72
2022/05/20 09:57:02;;;;;;;;;;;;;;;26.87;14.28;100863.53;5036359;28;20012;-71
2022/05/20 09:59:34;;;;;;;;;;;;;;;26.69;14.46;100859.53;5036101;28;20059;-71
2022/05/20 10:02:03;;;;;;;;;;;;;;;26.81;13.92;100858.38;5036275;28;19924;-72
2022/05/20 10:04:43;;;;;;;;;;;;;;;26.83;14.08;100856.97;5018624;28;19920;-72
2022/05/20 10:07:10;;;;;;;;;;;;;;;26.91;14.00;100850.06;5036324;28;19943;-72
2022/05/20 10:09:50;;;;;;;;;;;;;;;26.96;14.01;100852.75;5018580;28;19917;-72
2022/05/20 10:12:26;;;;;;;;;;;;;;;26.85;14.11;100860.22;5018734;28;19921;-72
2022/05/20 10:15:12;;;;;;;;;;;;;;;26.89;13.86;100861.31;5018351;28;19967;-69
2022/05/20 10:17:40;;;;;;;;;;;;;;;26.93;13.78;100856.88;5036241;28;19921;-71
2022/05/20 10:20:06;;;;;;;;;;;;;;;26.87;13.97;100848.97;5018588;28;19921;-68
2022/05/20 10:22:31;;;;;;;;;;;;;;;26.90;13.98;100849.22;5036468;28;20253;-70
2022/05/20 10:25:02;;;;;;;;;;;;;;;27.02;13.82;100851.59;5035528;28;19944;-70
2022/05/20 10:27:37;;;;;;;;;;;;;;;26.99;13.86;100843.94;5035706;28;20287;-68
2022/05/20 10:32:55;;;;;;;;;;;;;;;27.02;13.87;100851.59;5023426;28;19928;-71
2022/05/20 10:35:21;;;;;;;;;;;;;;;27.06;13.83;100832.66;5015737;28;19918;-71
2022/05/20 10:38:05;;;;;;;;;;;;;;;26.96;13.86;100834.38;5015355;28;20020;-70
2022/05/20 10:40:33;;;;;;;;;;;;;;;26.96;14.18;100828.91;5015148;28;20364;-69
2022/05/20 10:43:17;;;;;;;;;;;;;;;27.05;13.65;100829.09;5015425;28;19953;-70
2022/05/20 10:48:36;;;;;;;;;;;;;;;27.17;13.38;100824.03;5015620;28;19972;-70
2022/05/20 10:51:01;;;;;;;;;;;;;;;27.21;13.49;100823.47;5015693;28;20279;-70
2022/05/20 10:53:32;;;;;;;;;;;;;;;27.17;13.53;100818.56;5015556;28;19972;-71
2022/05/20 10:56:16;;;;;;;;;;;;;;;27.05;13.64;100809.09;5014903;28;19918;-70
2022/05/20 10:59:00;;;;;;;;;;;;;;;27.06;13.56;100806.06;5015193;28;19925;-71
2022/05/20 11:02:01;;;;;;;;;;;;;;;27.12;13.51;100810.38;5016516;28;19918;-71
2022/05/20 11:04:35;;;;;;;;;;;;;;;27.11;13.36;100807.91;4959751;29;20009;-70
2022/05/20 11:07:12;;;;;;;;;;;;;;;27.03;13.87;100805.78;4954643;29;19925;-70
2022/05/20 11:09:56;;;;;;;;;;;;;;;26.99;13.80;100811.03;4955255;29;19919;-72
2022/05/20 11:12:27;;;;;;;;;;;;;;;27.08;13.59;100803.84;4954104;29;20075;-71
2022/05/20 11:14:52;;;;;;;;;;;;;;;27.06;13.57;100795.09;4954229;29;20021;-70
2022/05/20 11:17:30;;;;;;;;;;;;;;;27.09;13.43;100789.00;4954029;29;20038;-70
2022/05/20 11:20:14;;;;;;;;;;;;;;;27.09;13.48;100791.75;4954104;29;20322;-70
2022/05/20 11:22:42;;;;;;;;;;;;;;;27.04;13.45;100785.50;4953888;29;19958;-71
2022/05/20 11:25:16;;;;;;;;;;;;;;;27.00;13.56;100790.75;4954445;29;19918;-71
2022/05/20 11:27:53;;;;;;;;;;;;;;;27.03;13.49;100784.69;4954997;29;20021;-71
2022/05/20 11:30:27;;;;;;;;;;;;;;;27.04;13.59;100786.31;4953846;29;19922;-70
2022/05/20 11:32:58;;;;;;;;;;;;;;;27.02;13.43;100782.22;4965804;28;19929;-70
2022/05/20 11:35:37;;;;;;;;;;;;;;;26.93;13.50;100782.03;4973222;28;19918;-70
2022/05/20 11:38:05;;;;;;;;;;;;;;;26.89;13.60;100778.22;4994151;28;19924;-70
2022/05/20 11:40:50;;;;;;;;;;;;;;;27.00;13.60;100766.06;5034131;28;19920;-70
2022/05/20 11:43:31;;;;;;;;;;;;;;;26.96;13.58;100768.56;4992513;28;19922;-69
2022/05/20 11:45:59;;;;;;;;;;;;;;;26.98;13.41;100765.53;4992391;28;20027;-72
2022/05/20 11:48:42;;;;;;;;;;;;;;;26.97;13.72;100761.13;4992521;28;19917;-73
2022/05/20 11:51:10;;;;;;;;;;;;;;;26.93;13.85;100751.88;4992685;28;19917;-73
2022/05/20 11:53:57;;;;;;;;;;;;;;;26.93;13.70;100751.88;4992384;28;19922;-72
2022/05/20 11:56:29;;;;;;;;;;;;;;;26.85;13.94;100760.72;4992434;28;20004;-71
2022/05/20 11:59:06;;;;;;;;;;;;;;;26.72;14.21;100754.78;4976384;28;20460;-72
2022/05/20 12:01:32;;;;;;;;;;;;;;;26.86;13.98;100752.19;4976356;28;19972;-72
2022/05/20 12:04:07;;;;;;;;;;;;;;;26.86;13.84;100741.22;4976208;28;19943;-71
2022/05/20 12:06:32;;;;;;;;;;;;;;;26.89;13.87;100753.53;4993078;28;20106;-72
2022/05/20 12:08:58;;;;;;;;;;;;;;;26.90;13.72;100749.69;4975853;28;20097;-72
2022/05/20 12:11:26;;;;;;;;;;;;;;;26.87;13.81;100742.88;4992203;28;19936;-73
2022/05/20 12:14:01;;;;;;;;;;;;;;;26.87;13.81;100742.88;4992245;28;20325;-73
2022/05/20 12:16:26;;;;;;;;;;;;;;;26.89;13.65;100742.56;4992106;28;20020;-72
2022/05/20 12:24:32;;;;;;;;;;;;;;;26.85;13.84;100738.78;5033815;28;20054;-72
2022/05/20 12:26:57;;;;;;;;;;;;;;;26.83;13.58;100730.84;5033605;28;19917;-72
2022/05/20 12:29:33;;;;;;;;;;;;;;;26.77;13.94;100732.81;5032301;28;20769;-72
2022/05/20 12:31:59;;;;;;;;;;;;;;;26.75;14.13;100729.53;5028934;28;19928;-72
2022/05/20 12:34:37;;;;;;;;;;;;;;;26.76;14.08;100741.31;5013563;28;19918;-72
2022/05/20 12:37:03;;;;;;;;;;;;;;;26.76;13.98;100736.66;5013554;28;19918;-70
2022/05/20 12:39:54;;;;;;;;;;;;;;;26.76;13.93;100731.16;4996330;28;19925;-70
2022/05/20 12:42:24;;;;;;;;;;;;;;;26.73;13.62;100725.44;5011288;28;19917;-70
2022/05/20 12:44:49;;;;;;;;;;;;;;;26.75;13.66;100723.22;5013717;28;19918;-70
2022/05/20 12:47:25;;;;;;;;;;;;;;;26.74;13.57;100710.63;5013313;28;20339;-70
2022/05/20 12:49:51;;;;;;;;;;;;;;;26.75;13.67;100710.34;4996151;28;19918;-70
2022/05/20 12:52:17;;;;;;;;;;;;;;;26.73;13.79;100717.22;5013467;28;20419;-71
2022/05/20 12:54:43;;;;;;;;;;;;;;;26.73;13.77;100698.88;5013738;28;19949;-70
2022/05/20 12:57:16;;;;;;;;;;;;;;;26.74;13.41;100705.16;5013754;28;19933;-71
2022/05/20 12:59:41;;;;;;;;;;;;;;;26.77;13.82;100707.31;5015662;28;19971;-70
2022/05/20 13:02:09;;;;;;;;;;;;;;;26.77;13.63;100708.13;5017747;28;19921;-71
2022/05/20 13:04:39;;;;;;;;;;;;;;;26.65;13.81;100702.22;5000372;28;19940;-70
2022/05/20 13:07:05;;;;;;;;;;;;;;;26.70;13.92;100702.19;4999680;28;19929;-70
2022/05/20 13:09:38;;;;;;;;;;;;;;;26.69;14.20;100703.28;5017662;28;19917;-70